Terminal Aerodrome Forecast
Issued by NWS

Home | Current Version | Previous Version | Text Only | Print | Product List | Glossary On
Versions: 1 2 3 4 5 6 7 8 9 10 11 12 13 14 15 16 17 18 19 20 21 22 23 24 25 26 27 28 29 30 31 32 33 34 35 36
000
FTUS43 KDDC 230433 AAA
TAFHYS
TAF AMD
KHYS 230433Z 2305/2324 16015KT P6SM SCT060 BKN120
      TEMPO 2307/2310 -TSRA SCT020 BKN030CB
     FM231500 18019G25KT P6SM BKN040=

USA.gov is the U.S. government's official web portal to all federal, state and local government web resources and services.